createdAt,value
2022-07-25T00:01:21.657Z,62.70
2022-07-25T00:03:51.764Z,62.60
2022-07-25T00:06:20.000Z,62.60
2022-07-25T00:08:48.089Z,62.50
2022-07-25T00:11:17.587Z,62.50
2022-07-25T00:13:45.690Z,62.30
2022-07-25T00:16:13.844Z,63.50
2022-07-25T00:18:42.199Z,62.40
2022-07-25T00:21:10.354Z,62.50
2022-07-25T00:23:38.495Z,62.40
2022-07-25T00:26:06.794Z,62.40
2022-07-25T00:28:36.280Z,62.30
2022-07-25T00:31:04.555Z,62.30
2022-07-25T00:33:32.789Z,62.30
2022-07-25T00:36:01.176Z,62.20
2022-07-25T00:38:29.290Z,62.10
2022-07-25T00:40:57.486Z,62.10
2022-07-25T00:43:25.577Z,62.00
2022-07-25T00:45:55.097Z,62.10
2022-07-25T00:48:24.550Z,61.90
2022-07-25T00:50:52.693Z,61.90
2022-07-25T00:53:20.829Z,61.90
2022-07-25T00:55:48.928Z,61.90
2022-07-25T00:58:19.003Z,61.90
2022-07-25T01:00:47.398Z,61.80
2022-07-25T01:03:17.129Z,61.70
2022-07-25T01:05:48.980Z,61.70
2022-07-25T01:08:19.760Z,61.70
2022-07-25T01:10:47.917Z,61.70
2022-07-25T01:13:16.058Z,61.70
2022-07-25T01:15:44.288Z,61.70
2022-07-25T01:18:12.447Z,62.60
2022-07-25T01:20:41.903Z,61.50
2022-07-25T01:23:09.983Z,61.60
2022-07-25T01:25:38.221Z,61.50
2022-07-25T01:28:06.697Z,61.40
2022-07-25T01:30:34.953Z,61.40
2022-07-25T01:33:06.991Z,61.30
2022-07-25T01:35:38.989Z,61.40
2022-07-25T01:38:11.072Z,61.20
2022-07-25T01:40:39.253Z,62.20
2022-07-25T01:43:07.305Z,61.20
2022-07-25T01:45:35.422Z,61.10
2022-07-25T01:48:03.511Z,61.00
2022-07-25T01:50:31.660Z,61.20
2022-07-25T01:52:59.805Z,61.10
2022-07-25T01:55:29.883Z,61.00
2022-07-25T01:57:59.276Z,62.00
2022-07-25T02:00:27.868Z,60.90
2022-07-25T02:03:09.878Z,60.80
2022-07-25T02:05:38.200Z,60.80
2022-07-25T02:08:06.657Z,60.80
2022-07-25T02:10:36.264Z,60.70
2022-07-25T02:13:05.416Z,60.70
2022-07-25T02:15:33.506Z,61.60
2022-07-25T02:18:01.755Z,60.60
2022-07-25T02:20:29.900Z,60.60
2022-07-25T02:22:58.058Z,60.60
2022-07-25T02:25:26.142Z,60.60
2022-07-25T02:27:55.588Z,60.50
2022-07-25T02:30:23.798Z,60.50
2022-07-25T02:32:51.905Z,60.60
2022-07-25T02:35:20.105Z,60.50
2022-07-25T02:37:48.343Z,60.50
2022-07-25T02:40:16.616Z,60.50
2022-07-25T02:42:44.708Z,60.50
2022-07-25T02:45:14.290Z,60.40
2022-07-25T02:47:42.341Z,60.40
2022-07-25T02:50:14.837Z,60.30
2022-07-25T02:52:43.361Z,60.40
2022-07-25T02:55:11.819Z,60.30
2022-07-25T02:57:39.905Z,60.30
2022-07-25T03:00:09.240Z,60.20
2022-07-25T03:02:38.774Z,60.20
2022-07-25T03:05:08.289Z,61.10
2022-07-25T03:07:36.476Z,60.20
2022-07-25T03:10:08.665Z,60.10
2022-07-25T03:12:39.697Z,60.10
2022-07-25T03:15:08.469Z,60.10
2022-07-25T03:17:37.930Z,60.10
2022-07-25T03:20:07.199Z,60.00
2022-07-25T03:22:35.367Z,60.00
2022-07-25T03:25:03.481Z,60.00
2022-07-25T03:27:31.553Z,60.00
2022-07-25T03:29:59.873Z,60.00
2022-07-25T03:32:28.015Z,59.90
2022-07-25T03:34:57.544Z,60.00
2022-07-25T03:37:25.710Z,60.00
2022-07-25T03:39:53.807Z,60.00
2022-07-25T03:42:26.736Z,60.00
2022-07-25T03:44:55.091Z,60.10
2022-07-25T03:47:23.194Z,60.00
2022-07-25T03:49:51.270Z,60.00
2022-07-25T03:52:20.727Z,61.00
2022-07-25T03:54:48.832Z,60.00
2022-07-25T03:57:16.942Z,60.00
2022-07-25T03:59:45.009Z,60.00
2022-07-25T04:02:13.183Z,60.00
2022-07-25T04:04:41.430Z,60.00
2022-07-25T04:07:09.509Z,60.00
2022-07-25T04:09:39.976Z,60.00
2022-07-25T04:12:08.373Z,60.00
2022-07-25T04:14:36.455Z,60.10
2022-07-25T04:17:04.629Z,60.20
2022-07-25T04:19:32.832Z,60.20
2022-07-25T04:22:00.960Z,60.30
2022-07-25T04:24:29.065Z,60.30
2022-07-25T04:26:58.521Z,60.20
2022-07-25T04:29:26.615Z,60.40
2022-07-25T04:31:54.739Z,60.50
2022-07-25T04:34:23.146Z,60.70
2022-07-25T04:36:51.235Z,60.80
2022-07-25T04:39:19.298Z,60.80
2022-07-25T04:41:47.350Z,60.70
2022-07-25T04:44:16.775Z,60.80
2022-07-25T04:46:44.854Z,60.80
2022-07-25T04:49:12.950Z,60.70
2022-07-25T04:51:41.105Z,60.80
2022-07-25T04:54:09.706Z,60.80
2022-07-25T04:56:38.184Z,61.70
2022-07-25T04:59:07.176Z,60.70
2022-07-25T05:01:37.063Z,60.90
2022-07-25T05:04:05.536Z,60.90
2022-07-25T05:06:33.869Z,60.80
2022-07-25T05:09:02.002Z,60.90
2022-07-25T05:11:30.081Z,61.00
2022-07-25T05:13:58.119Z,60.90
2022-07-25T05:16:26.259Z,60.90
2022-07-25T05:18:55.717Z,61.00
2022-07-25T05:21:24.984Z,61.00
2022-07-25T05:23:53.093Z,61.20
2022-07-25T05:26:21.186Z,61.30
2022-07-25T05:28:49.266Z,61.10
2022-07-25T05:31:17.404Z,61.00
2022-07-25T05:33:45.502Z,60.90
2022-07-25T05:36:14.955Z,61.00
2022-07-25T05:38:43.030Z,61.10
2022-07-25T05:41:11.208Z,61.20
2022-07-25T05:43:39.342Z,61.30
2022-07-25T05:46:07.480Z,61.30
2022-07-25T05:48:35.629Z,61.30
2022-07-25T05:51:03.764Z,61.30
2022-07-25T05:53:33.182Z,61.20
2022-07-25T05:56:01.274Z,61.20
2022-07-25T05:58:30.204Z,61.20
2022-07-25T06:00:58.614Z,61.20
2022-07-25T06:03:26.939Z,61.30
2022-07-25T06:05:56.143Z,61.20
2022-07-25T06:08:24.381Z,61.20
2022-07-25T06:10:54.478Z,61.20
2022-07-25T06:13:23.588Z,61.20
2022-07-25T06:15:51.883Z,60.90
2022-07-25T06:18:20.169Z,61.00
2022-07-25T06:20:48.798Z,61.10
2022-07-25T06:23:16.882Z,61.10
2022-07-25T06:25:50.212Z,61.00
2022-07-25T06:28:19.992Z,61.00
2022-07-25T06:30:48.320Z,61.10
2022-07-25T06:33:16.415Z,61.20
2022-07-25T06:35:44.456Z,61.20
2022-07-25T06:38:12.520Z,61.50
2022-07-25T06:40:40.583Z,61.60
2022-07-25T06:43:08.629Z,61.90
2022-07-25T06:45:38.222Z,61.80
2022-07-25T06:48:06.942Z,61.60
2022-07-25T06:50:35.139Z,61.40
2022-07-25T06:53:03.250Z,61.80
2022-07-25T06:55:31.342Z,61.50
2022-07-25T06:57:59.435Z,61.20
2022-07-25T07:00:27.799Z,61.00
2022-07-25T07:02:58.578Z,61.20
2022-07-25T07:05:28.153Z,61.40
2022-07-25T07:07:56.226Z,61.70
2022-07-25T07:10:24.355Z,61.70
2022-07-25T07:12:52.561Z,61.70
2022-07-25T07:15:20.662Z,62.50
2022-07-25T07:17:48.762Z,60.90
2022-07-25T07:20:18.166Z,61.10
2022-07-25T07:22:46.586Z,62.40
2022-07-25T07:25:15.465Z,60.90
2022-07-25T07:27:43.988Z,61.20
2022-07-25T07:30:12.465Z,61.40
2022-07-25T07:32:40.579Z,61.40
2022-07-25T07:35:09.571Z,61.60
2022-07-25T07:37:43.464Z,61.50
2022-07-25T07:40:17.797Z,61.30
2022-07-25T07:42:47.101Z,61.20
2022-07-25T07:45:15.962Z,60.70
2022-07-25T07:47:44.506Z,60.00
2022-07-25T07:50:12.554Z,59.70
2022-07-25T07:52:41.998Z,59.30
2022-07-25T07:55:28.300Z,59.10
2022-07-25T07:57:59.642Z,59.60
2022-07-25T08:00:29.069Z,60.10
2022-07-25T08:02:57.264Z,59.40
2022-07-25T08:05:27.053Z,59.40
2022-07-25T08:07:56.502Z,59.70
2022-07-25T08:10:25.713Z,60.10
2022-07-25T08:12:53.893Z,60.20
2022-07-25T08:15:22.408Z,60.00
2022-07-25T08:17:51.407Z,60.20
2022-07-25T08:20:37.436Z,60.30
2022-07-25T08:23:08.171Z,60.60
2022-07-25T08:25:36.602Z,60.70
2022-07-25T08:28:06.395Z,60.60
2022-07-25T08:30:34.991Z,60.50
2022-07-25T08:33:04.485Z,61.70
2022-07-25T08:35:33.201Z,60.60
2022-07-25T08:38:01.413Z,60.60
2022-07-25T08:40:31.331Z,60.70
2022-07-25T08:42:59.548Z,60.80
2022-07-25T08:45:28.714Z,60.80
2022-07-25T08:47:58.461Z,60.70
2022-07-25T08:50:33.654Z,60.70
2022-07-25T08:53:30.379Z,60.60
2022-07-25T08:55:51.268Z,60.20
2022-07-25T08:58:21.061Z,59.90
2022-07-25T09:00:49.199Z,59.70
2022-07-25T09:03:17.394Z,60.20
2022-07-25T09:05:46.295Z,60.00
2022-07-25T09:08:14.952Z,59.90
2022-07-25T09:10:47.312Z,60.00
2022-07-25T09:13:16.937Z,60.20
2022-07-25T09:15:46.679Z,60.10
2022-07-25T09:18:17.031Z,59.70
2022-07-25T09:20:46.538Z,59.80
2022-07-25T09:23:15.694Z,59.80
2022-07-25T09:25:43.838Z,59.40
2022-07-25T09:28:17.255Z,58.90
2022-07-25T09:30:55.495Z,59.10
2022-07-25T09:33:24.023Z,60.20
2022-07-25T09:35:52.478Z,59.00
2022-07-25T09:38:20.949Z,59.00
2022-07-25T09:40:56.294Z,58.60
2022-07-25T09:43:36.004Z,58.80
2022-07-25T09:46:04.132Z,58.90
2022-07-25T09:48:33.302Z,58.60
2022-07-25T09:51:01.465Z,58.40
2022-07-25T09:53:29.737Z,58.40
2022-07-25T09:55:57.938Z,58.30
2022-07-25T09:58:27.727Z,58.00
2022-07-25T10:00:58.587Z,58.10
2022-07-25T10:03:30.393Z,58.20
2022-07-25T10:06:08.263Z,58.00
2022-07-25T10:08:37.451Z,57.90
2022-07-25T10:11:06.733Z,57.80
2022-07-25T10:13:38.265Z,57.90
2022-07-25T10:16:15.779Z,57.80
2022-07-25T10:18:49.453Z,57.70
2022-07-25T10:21:26.440Z,57.80
2022-07-25T10:24:03.313Z,57.70
2022-07-25T10:26:31.579Z,57.70
2022-07-25T10:29:02.160Z,57.60
2022-07-25T10:31:35.982Z,57.30
2022-07-25T10:34:05.067Z,57.30
2022-07-25T10:36:43.214Z,57.30
2022-07-25T10:39:12.735Z,57.10
2022-07-25T10:41:41.377Z,57.40
2022-07-25T10:44:15.105Z,57.20
2022-07-25T10:46:44.647Z,56.90
2022-07-25T10:49:18.827Z,56.80
2022-07-25T10:51:55.829Z,57.00
2022-07-25T10:54:23.996Z,56.80
2022-07-25T10:56:53.844Z,56.60
2022-07-25T10:59:35.224Z,56.30
2022-07-25T11:02:03.610Z,56.50
2022-07-25T11:04:31.814Z,56.30
2022-07-25T11:07:08.222Z,56.30
2022-07-25T11:09:36.418Z,56.20
2022-07-25T11:12:05.001Z,56.10
2022-07-25T11:14:35.380Z,56.00
2022-07-25T11:17:14.486Z,55.60
2022-07-25T11:19:42.973Z,55.50
2022-07-25T11:22:11.302Z,56.00
2022-07-25T11:24:40.574Z,56.20
2022-07-25T11:27:12.706Z,56.60
2022-07-25T11:29:42.444Z,56.60
2022-07-25T11:32:11.744Z,56.00
2022-07-25T11:34:41.629Z,56.00
2022-07-25T11:37:10.672Z,55.40
2022-07-25T11:39:39.924Z,55.20
2022-07-25T11:42:09.147Z,55.20
2022-07-25T11:44:38.246Z,56.20
2022-07-25T11:47:09.290Z,56.10
2022-07-25T11:49:46.710Z,55.90
2022-07-25T11:52:24.731Z,55.80
2022-07-25T11:54:56.989Z,55.60
2022-07-25T11:57:25.227Z,55.80
2022-07-25T11:59:56.231Z,55.40
2022-07-25T12:02:32.384Z,55.30
2022-07-25T12:05:01.363Z,55.40
2022-07-25T12:07:39.859Z,55.50
2022-07-25T12:10:09.683Z,56.00
2022-07-25T12:12:45.205Z,56.20
2022-07-25T12:15:14.000Z,55.90
2022-07-25T12:17:44.106Z,56.30
2022-07-25T12:20:17.114Z,55.90
2022-07-25T12:22:45.303Z,56.30
2022-07-25T12:25:15.680Z,56.30
2022-07-25T12:27:44.231Z,56.00
2022-07-25T12:30:13.470Z,56.90
2022-07-25T12:32:43.031Z,56.20
2022-07-25T12:35:12.319Z,56.50
2022-07-25T12:37:41.269Z,56.60
2022-07-25T12:40:11.342Z,56.80
2022-07-25T12:42:39.487Z,57.60
2022-07-25T12:45:09.194Z,58.50
2022-07-25T12:47:37.539Z,59.90
2022-07-25T12:50:07.858Z,60.40
2022-07-25T12:52:36.212Z,59.70
2022-07-25T12:55:04.836Z,59.20
2022-07-25T12:57:33.178Z,58.50
2022-07-25T13:00:01.600Z,58.20
2022-07-25T13:02:30.141Z,58.20
2022-07-25T13:04:58.668Z,57.90
2022-07-25T13:07:28.873Z,57.80
2022-07-25T13:09:57.245Z,57.90
2022-07-25T13:12:25.538Z,57.50
2022-07-25T13:14:53.884Z,57.60
2022-07-25T13:17:26.903Z,58.00
2022-07-25T13:19:55.895Z,57.70
2022-07-25T13:22:24.227Z,57.80
2022-07-25T13:24:53.769Z,57.40
2022-07-25T13:27:22.532Z,57.60
2022-07-25T13:29:54.266Z,57.60
2022-07-25T13:32:22.859Z,57.30
2022-07-25T13:34:51.003Z,56.80
2022-07-25T13:37:19.188Z,56.70
2022-07-25T13:39:47.314Z,56.60
2022-07-25T13:42:16.844Z,56.60
2022-07-25T13:44:45.033Z,56.30
2022-07-25T13:47:13.174Z,55.90
2022-07-25T13:49:41.768Z,56.00
2022-07-25T13:52:09.852Z,55.90
2022-07-25T13:54:38.126Z,56.50
2022-07-25T13:57:06.401Z,55.40
2022-07-25T13:59:36.125Z,55.30
2022-07-25T14:02:04.409Z,55.40
2022-07-25T14:04:32.558Z,54.80
2022-07-25T14:07:00.834Z,55.30
2022-07-25T14:09:29.053Z,54.90
2022-07-25T14:11:57.213Z,54.60
2022-07-25T14:14:25.376Z,54.90
2022-07-25T14:16:55.645Z,54.60
2022-07-25T14:19:24.187Z,54.40
2022-07-25T14:21:52.410Z,54.90
2022-07-25T14:24:20.947Z,55.20
2022-07-25T14:26:49.711Z,54.70
2022-07-25T14:29:18.243Z,54.60
2022-07-25T14:31:46.614Z,54.50
2022-07-25T14:34:16.470Z,54.60
2022-07-25T14:36:47.477Z,54.30
2022-07-25T14:39:15.935Z,54.70
2022-07-25T14:41:44.096Z,54.90
2022-07-25T14:44:13.609Z,54.80
2022-07-25T14:46:43.017Z,54.30
2022-07-25T14:49:13.810Z,54.30
2022-07-25T14:51:45.305Z,54.30
2022-07-25T14:54:13.743Z,54.60
2022-07-25T14:56:41.875Z,54.60
2022-07-25T14:59:10.448Z,54.50
2022-07-25T15:01:39.138Z,54.50
2022-07-25T15:04:07.648Z,54.60
2022-07-25T15:06:35.783Z,54.80
2022-07-25T15:09:05.740Z,54.90
2022-07-25T15:11:33.972Z,55.00
2022-07-25T15:14:02.122Z,55.50
2022-07-25T15:16:30.408Z,55.40
2022-07-25T15:19:16.074Z,55.20
2022-07-25T15:21:45.420Z,54.70
2022-07-25T15:24:15.069Z,54.90
2022-07-25T15:26:43.605Z,55.10
2022-07-25T15:29:13.568Z,55.10
2022-07-25T15:31:41.870Z,55.50
2022-07-25T15:34:10.029Z,58.10
2022-07-25T15:36:38.236Z,59.20
2022-07-25T15:39:06.737Z,58.60
2022-07-25T15:41:38.480Z,57.70
2022-07-25T15:44:08.480Z,57.00
2022-07-25T15:46:36.740Z,56.90
2022-07-25T15:49:05.401Z,56.70
2022-07-25T15:51:33.814Z,56.30
2022-07-25T15:54:02.038Z,56.50
2022-07-25T15:56:30.238Z,56.70
2022-07-25T15:58:59.875Z,56.80
2022-07-25T16:01:28.269Z,57.00
2022-07-25T16:03:59.768Z,57.00
2022-07-25T16:06:28.309Z,56.60
2022-07-25T16:08:56.483Z,56.60
2022-07-25T16:11:27.596Z,56.50
2022-07-25T16:13:55.727Z,56.50
2022-07-25T16:16:25.737Z,56.30
2022-07-25T16:18:53.995Z,56.40
2022-07-25T16:21:22.215Z,56.40
2022-07-25T16:23:50.343Z,56.20
2022-07-25T16:26:18.528Z,56.30
2022-07-25T16:28:48.478Z,56.20
2022-07-25T16:31:16.634Z,56.10
2022-07-25T16:33:46.254Z,55.90
2022-07-25T16:36:14.473Z,55.90
2022-07-25T16:38:43.314Z,55.80
2022-07-25T16:41:11.503Z,55.60
2022-07-25T16:43:39.805Z,55.40
2022-07-25T16:46:08.710Z,55.40
2022-07-25T16:48:37.627Z,55.10
2022-07-25T16:51:07.647Z,55.00
2022-07-25T16:53:36.558Z,54.80
2022-07-25T16:56:05.246Z,54.70
2022-07-25T16:58:34.967Z,54.70
2022-07-25T17:01:03.299Z,54.50
2022-07-25T17:03:31.688Z,54.40
2022-07-25T17:05:59.981Z,54.30
2022-07-25T17:08:31.857Z,54.60
2022-07-25T17:11:00.043Z,54.50
2022-07-25T17:13:28.158Z,54.50
2022-07-25T17:15:56.495Z,54.40
2022-07-25T17:18:24.682Z,54.40
2022-07-25T17:20:53.228Z,54.40
2022-07-25T17:23:21.507Z,54.40
2022-07-25T17:25:51.213Z,54.40
2022-07-25T17:28:19.336Z,54.30
2022-07-25T17:30:47.551Z,54.40
2022-07-25T17:33:15.842Z,54.50
2022-07-25T17:35:43.998Z,54.60
2022-07-25T17:38:12.662Z,54.80
2022-07-25T17:40:42.558Z,54.70
2022-07-25T17:43:12.035Z,54.70
2022-07-25T17:45:40.236Z,54.80
2022-07-25T17:48:08.424Z,54.80
2022-07-25T17:50:36.693Z,54.90
2022-07-25T17:53:04.823Z,55.10
2022-07-25T17:55:38.531Z,55.10
2022-07-25T17:58:07.301Z,55.10
2022-07-25T18:00:36.818Z,55.20
2022-07-25T18:03:05.145Z,55.20
2022-07-25T18:05:33.364Z,55.30
2022-07-25T18:08:02.885Z,55.50
2022-07-25T18:10:31.501Z,55.60
2022-07-25T18:13:01.966Z,55.90
2022-07-25T18:15:30.140Z,56.10
2022-07-25T18:17:59.691Z,56.30
2022-07-25T18:20:29.058Z,56.50
2022-07-25T18:22:58.592Z,56.60
2022-07-25T18:25:27.305Z,56.90
2022-07-25T18:27:55.494Z,57.10
2022-07-25T18:30:27.285Z,57.20
2022-07-25T18:32:57.330Z,57.40
2022-07-25T18:35:26.907Z,57.70
2022-07-25T18:37:55.061Z,58.00
2022-07-25T18:40:23.222Z,58.10
2022-07-25T18:42:51.364Z,58.20
2022-07-25T18:45:19.486Z,58.20
2022-07-25T18:47:48.763Z,58.20
2022-07-25T18:50:19.850Z,58.40
2022-07-25T18:52:49.469Z,58.60
2022-07-25T18:55:17.601Z,58.70
2022-07-25T18:57:46.093Z,58.80
2022-07-25T19:00:14.591Z,59.00
2022-07-25T19:02:42.787Z,59.40
2022-07-25T19:05:11.154Z,60.70
2022-07-25T19:07:39.950Z,60.30
2022-07-25T19:10:10.225Z,60.20
2022-07-25T19:12:38.420Z,60.30
2022-07-25T19:15:07.462Z,60.20
2022-07-25T19:17:37.123Z,60.00
2022-07-25T19:20:05.898Z,59.90
2022-07-25T19:22:34.092Z,59.80
2022-07-25T19:25:05.731Z,59.70
2022-07-25T19:27:35.384Z,59.80
2022-07-25T19:30:06.153Z,59.70
2022-07-25T19:32:34.624Z,59.70
2022-07-25T19:35:03.254Z,59.70
2022-07-25T19:37:31.551Z,59.70
2022-07-25T19:39:59.750Z,59.70
2022-07-25T19:42:28.074Z,59.70
2022-07-25T19:44:57.610Z,59.70
2022-07-25T19:47:25.861Z,59.70
2022-07-25T19:49:54.473Z,59.80
2022-07-25T19:52:22.754Z,59.80
2022-07-25T19:54:50.916Z,59.80
2022-07-25T19:57:19.258Z,59.80
2022-07-25T19:59:47.436Z,59.80
2022-07-25T20:02:17.390Z,59.80
2022-07-25T20:04:45.763Z,59.80
2022-07-25T20:07:13.945Z,59.90
2022-07-25T20:09:42.203Z,59.80
2022-07-25T20:12:10.812Z,59.80
2022-07-25T20:14:39.037Z,58.10
2022-07-25T20:17:08.527Z,56.90
2022-07-25T20:19:38.253Z,56.60
2022-07-25T20:22:07.007Z,56.30
2022-07-25T20:24:35.159Z,55.90
2022-07-25T20:27:03.407Z,55.60
2022-07-25T20:29:31.599Z,55.80
2022-07-25T20:31:59.951Z,56.60
2022-07-25T20:34:28.195Z,58.00
2022-07-25T20:36:57.810Z,58.20
2022-07-25T20:39:26.395Z,58.60
2022-07-25T20:41:56.903Z,58.90
2022-07-25T20:44:25.034Z,59.10
2022-07-25T20:46:53.156Z,59.00
2022-07-25T20:49:21.392Z,59.40
2022-07-25T20:51:54.024Z,59.40
2022-07-25T20:54:24.197Z,60.10
2022-07-25T20:56:53.023Z,60.40
2022-07-25T20:59:21.139Z,60.50
2022-07-25T21:01:49.339Z,60.90
2022-07-25T21:04:18.800Z,59.80
2022-07-25T21:06:47.104Z,60.40
2022-07-25T21:09:16.682Z,60.90
2022-07-25T21:11:46.209Z,61.20
2022-07-25T21:14:14.400Z,61.50
2022-07-25T21:16:42.635Z,61.60
2022-07-25T21:19:11.182Z,61.70
2022-07-25T21:21:40.710Z,61.50
2022-07-25T21:24:11.860Z,61.60
2022-07-25T21:26:40.459Z,61.90
2022-07-25T21:29:10.598Z,61.80
2022-07-25T21:31:39.182Z,61.80
2022-07-25T21:34:07.408Z,61.60
2022-07-25T21:36:35.542Z,61.50
2022-07-25T21:39:03.921Z,61.70
2022-07-25T21:41:32.340Z,60.50
2022-07-25T21:44:00.450Z,60.30
2022-07-25T21:46:29.991Z,61.20
2022-07-25T21:49:15.860Z,61.80
2022-07-25T21:51:44.679Z,62.90
2022-07-25T21:54:12.950Z,61.80
2022-07-25T21:56:42.132Z,61.80
2022-07-25T21:59:10.768Z,61.90
2022-07-25T22:01:40.541Z,61.80
2022-07-25T22:04:08.751Z,61.70
2022-07-25T22:06:36.878Z,61.70
2022-07-25T22:09:05.518Z,61.60
2022-07-25T22:11:42.857Z,61.50
2022-07-25T22:14:15.117Z,61.50
2022-07-25T22:16:44.671Z,61.40
2022-07-25T22:19:12.866Z,59.70
2022-07-25T22:21:41.234Z,60.00
2022-07-25T22:24:09.780Z,61.10
2022-07-25T22:26:37.932Z,61.50
2022-07-25T22:29:06.296Z,61.60
2022-07-25T22:31:34.695Z,61.70
2022-07-25T22:34:04.303Z,61.80
2022-07-25T22:36:32.425Z,61.70
2022-07-25T22:39:00.553Z,61.70
2022-07-25T22:41:28.694Z,61.60
2022-07-25T22:43:59.596Z,61.60
2022-07-25T22:46:28.736Z,61.60
2022-07-25T22:48:57.134Z,61.70
2022-07-25T22:51:26.698Z,62.60
2022-07-25T22:53:54.874Z,61.70
2022-07-25T22:56:23.231Z,60.20
2022-07-25T22:58:51.411Z,60.60
2022-07-25T23:01:19.664Z,61.40
2022-07-25T23:03:49.860Z,61.50
2022-07-25T23:06:18.577Z,61.50
2022-07-25T23:08:48.084Z,61.40
2022-07-25T23:11:16.261Z,61.40
2022-07-25T23:13:44.383Z,61.40
2022-07-25T23:16:12.547Z,61.50
2022-07-25T23:18:40.870Z,61.40
2022-07-25T23:21:09.024Z,61.50
2022-07-25T23:23:37.160Z,61.40
2022-07-25T23:26:06.622Z,61.50
2022-07-25T23:28:34.852Z,61.50
2022-07-25T23:31:02.984Z,61.50
2022-07-25T23:33:31.187Z,60.20
2022-07-25T23:35:59.308Z,60.20
2022-07-25T23:38:27.549Z,61.00
2022-07-25T23:40:55.677Z,61.70
2022-07-25T23:43:31.890Z,61.80
2022-07-25T23:46:13.412Z,62.10
2022-07-25T23:48:41.676Z,61.80
2022-07-25T23:51:09.868Z,61.80
2022-07-25T23:53:38.010Z,61.80
2022-07-25T23:56:06.534Z,61.60
2022-07-25T23:58:36.034Z,61.60
